sensor_id;sensor_type;location;lat;lon;timestamp;P1;durP1;ratioP1;P2;durP2;ratioP2
10894;SDS011;5500;49.886;8.074;2024-01-30T00:02:17;18.17;;;15.73;;
10894;SDS011;5500;49.886;8.074;2024-01-30T00:04:45;21.13;;;16.37;;
10894;SDS011;5500;49.886;8.074;2024-01-30T00:07:12;22.37;;;16.50;;
10894;SDS011;5500;49.886;8.074;2024-01-30T00:09:40;19.90;;;16.53;;
10894;SDS011;5500;49.886;8.074;2024-01-30T00:12:08;19.20;;;16.33;;
10894;SDS011;5500;49.886;8.074;2024-01-30T00:14:36;23.60;;;16.13;;
10894;SDS011;5500;49.886;8.074;2024-01-30T00:17:05;22.27;;;14.87;;
10894;SDS011;5500;49.886;8.074;2024-01-30T00:19:33;22.40;;;16.30;;
10894;SDS011;5500;49.886;8.074;2024-01-30T00:22:00;20.93;;;16.77;;
10894;SDS011;5500;49.886;8.074;2024-01-30T00:24:28;19.63;;;17.23;;
10894;SDS011;5500;49.886;8.074;2024-01-30T00:26:56;23.43;;;17.83;;
10894;SDS011;5500;49.886;8.074;2024-01-30T00:29:24;26.47;;;17.53;;
10894;SDS011;5500;49.886;8.074;2024-01-30T00:31:56;23.37;;;16.60;;
10894;SDS011;5500;49.886;8.074;2024-01-30T00:34:26;22.40;;;17.90;;
10894;SDS011;5500;49.886;8.074;2024-01-30T00:36:54;19.27;;;16.37;;
10894;SDS011;5500;49.886;8.074;2024-01-30T00:39:22;20.17;;;15.83;;
10894;SDS011;5500;49.886;8.074;2024-01-30T00:41:49;21.90;;;17.13;;
10894;SDS011;5500;49.886;8.074;2024-01-30T00:44:17;22.43;;;15.10;;
10894;SDS011;5500;49.886;8.074;2024-01-30T00:46:45;20.43;;;16.20;;
10894;SDS011;5500;49.886;8.074;2024-01-30T00:49:13;19.40;;;16.20;;
10894;SDS011;5500;49.886;8.074;2024-01-30T00:51:43;21.93;;;15.60;;
10894;SDS011;5500;49.886;8.074;2024-01-30T00:54:11;22.20;;;15.77;;
10894;SDS011;5500;49.886;8.074;2024-01-30T00:56:38;17.17;;;13.83;;
10894;SDS011;5500;49.886;8.074;2024-01-30T00:59:06;19.07;;;15.17;;
10894;SDS011;5500;49.886;8.074;2024-01-30T01:01:34;23.03;;;16.00;;
10894;SDS011;5500;49.886;8.074;2024-01-30T01:04:02;19.97;;;15.70;;
10894;SDS011;5500;49.886;8.074;2024-01-30T01:06:30;20.63;;;14.33;;
10894;SDS011;5500;49.886;8.074;2024-01-30T01:08:59;21.37;;;16.20;;
10894;SDS011;5500;49.886;8.074;2024-01-30T01:11:30;20.17;;;16.27;;
10894;SDS011;5500;49.886;8.074;2024-01-30T01:13:58;21.25;;;17.92;;
10894;SDS011;5500;49.886;8.074;2024-01-30T01:16:26;19.77;;;16.30;;
10894;SDS011;5500;49.886;8.074;2024-01-30T01:18:53;23.30;;;16.87;;
10894;SDS011;5500;49.886;8.074;2024-01-30T01:21:21;20.17;;;16.87;;
10894;SDS011;5500;49.886;8.074;2024-01-30T01:23:49;21.33;;;16.37;;
10894;SDS011;5500;49.886;8.074;2024-01-30T01:26:18;21.40;;;16.90;;
10894;SDS011;5500;49.886;8.074;2024-01-30T01:28:46;23.97;;;17.07;;
10894;SDS011;5500;49.886;8.074;2024-01-30T01:31:14;21.53;;;17.40;;
10894;SDS011;5500;49.886;8.074;2024-01-30T01:33:44;24.57;;;17.23;;
10894;SDS011;5500;49.886;8.074;2024-01-30T01:36:13;20.80;;;16.87;;
10894;SDS011;5500;49.886;8.074;2024-01-30T01:38:40;20.77;;;17.20;;
10894;SDS011;5500;49.886;8.074;2024-01-30T01:41:08;20.90;;;16.77;;
10894;SDS011;5500;49.886;8.074;2024-01-30T01:43:37;24.87;;;16.97;;
10894;SDS011;5500;49.886;8.074;2024-01-30T01:46:05;19.90;;;17.73;;
10894;SDS011;5500;49.886;8.074;2024-01-30T01:48:33;22.97;;;17.07;;
10894;SDS011;5500;49.886;8.074;2024-01-30T01:51:01;22.73;;;17.40;;
10894;SDS011;5500;49.886;8.074;2024-01-30T01:53:29;25.13;;;18.30;;
10894;SDS011;5500;49.886;8.074;2024-01-30T01:55:57;20.97;;;17.53;;
10894;SDS011;5500;49.886;8.074;2024-01-30T01:58:24;21.73;;;17.43;;
10894;SDS011;5500;49.886;8.074;2024-01-30T02:00:57;24.00;;;16.70;;
10894;SDS011;5500;49.886;8.074;2024-01-30T02:03:25;20.67;;;17.70;;
10894;SDS011;5500;49.886;8.074;2024-01-30T02:05:53;21.93;;;18.20;;
10894;SDS011;5500;49.886;8.074;2024-01-30T02:08:21;20.97;;;18.23;;
10894;SDS011;5500;49.886;8.074;2024-01-30T02:10:49;22.80;;;16.13;;
10894;SDS011;5500;49.886;8.074;2024-01-30T02:13:17;23.13;;;17.43;;
10894;SDS011;5500;49.886;8.074;2024-01-30T02:15:48;22.27;;;17.23;;
10894;SDS011;5500;49.886;8.074;2024-01-30T02:18:18;20.03;;;15.70;;
10894;SDS011;5500;49.886;8.074;2024-01-30T02:20:47;19.17;;;17.10;;
10894;SDS011;5500;49.886;8.074;2024-01-30T02:23:16;21.37;;;17.27;;
10894;SDS011;5500;49.886;8.074;2024-01-30T02:25:43;21.40;;;17.80;;
10894;SDS011;5500;49.886;8.074;2024-01-30T02:28:12;23.47;;;17.10;;
10894;SDS011;5500;49.886;8.074;2024-01-30T02:30:40;24.03;;;17.40;;
10894;SDS011;5500;49.886;8.074;2024-01-30T02:33:10;22.37;;;18.53;;
10894;SDS011;5500;49.886;8.074;2024-01-30T02:35:37;22.10;;;18.07;;
10894;SDS011;5500;49.886;8.074;2024-01-30T02:38:05;22.37;;;17.83;;
10894;SDS011;5500;49.886;8.074;2024-01-30T02:40:35;20.40;;;17.37;;
10894;SDS011;5500;49.886;8.074;2024-01-30T02:43:02;22.07;;;17.73;;
10894;SDS011;5500;49.886;8.074;2024-01-30T02:45:31;22.30;;;18.50;;
10894;SDS011;5500;49.886;8.074;2024-01-30T02:47:58;21.33;;;17.40;;
10894;SDS011;5500;49.886;8.074;2024-01-30T02:50:26;21.67;;;18.17;;
10894;SDS011;5500;49.886;8.074;2024-01-30T02:52:54;21.47;;;18.17;;
10894;SDS011;5500;49.886;8.074;2024-01-30T02:55:22;22.37;;;17.87;;
10894;SDS011;5500;49.886;8.074;2024-01-30T02:57:51;21.93;;;17.50;;
10894;SDS011;5500;49.886;8.074;2024-01-30T03:00:19;22.67;;;17.80;;
10894;SDS011;5500;49.886;8.074;2024-01-30T03:02:47;22.37;;;17.40;;
10894;SDS011;5500;49.886;8.074;2024-01-30T03:05:15;20.90;;;17.57;;
10894;SDS011;5500;49.886;8.074;2024-01-30T03:07:43;21.53;;;17.53;;
10894;SDS011;5500;49.886;8.074;2024-01-30T03:10:10;24.00;;;17.40;;
10894;SDS011;5500;49.886;8.074;2024-01-30T03:12:38;21.93;;;18.13;;
10894;SDS011;5500;49.886;8.074;2024-01-30T03:15:08;29.50;;;17.50;;
10894;SDS011;5500;49.886;8.074;2024-01-30T03:17:37;20.73;;;17.03;;
10894;SDS011;5500;49.886;8.074;2024-01-30T03:20:05;19.50;;;15.90;;
10894;SDS011;5500;49.886;8.074;2024-01-30T03:22:33;22.17;;;17.27;;
10894;SDS011;5500;49.886;8.074;2024-01-30T03:25:02;23.17;;;16.00;;
10894;SDS011;5500;49.886;8.074;2024-01-30T03:27:30;20.63;;;16.70;;
10894;SDS011;5500;49.886;8.074;2024-01-30T03:29:58;21.73;;;17.17;;
10894;SDS011;5500;49.886;8.074;2024-01-30T03:32:27;19.97;;;17.73;;
10894;SDS011;5500;49.886;8.074;2024-01-30T03:34:54;21.43;;;17.47;;
10894;SDS011;5500;49.886;8.074;2024-01-30T03:37:22;20.77;;;17.73;;
10894;SDS011;5500;49.886;8.074;2024-01-30T03:39:50;22.73;;;17.50;;
10894;SDS011;5500;49.886;8.074;2024-01-30T03:42:18;21.83;;;17.07;;
10894;SDS011;5500;49.886;8.074;2024-01-30T03:44:46;22.07;;;17.17;;
10894;SDS011;5500;49.886;8.074;2024-01-30T03:47:14;21.67;;;17.13;;
10894;SDS011;5500;49.886;8.074;2024-01-30T03:49:43;19.50;;;16.43;;
10894;SDS011;5500;49.886;8.074;2024-01-30T03:52:10;22.77;;;17.00;;
10894;SDS011;5500;49.886;8.074;2024-01-30T03:54:38;21.30;;;16.70;;
10894;SDS011;5500;49.886;8.074;2024-01-30T03:57:08;19.37;;;15.33;;
10894;SDS011;5500;49.886;8.074;2024-01-30T03:59:41;17.97;;;15.70;;
10894;SDS011;5500;49.886;8.074;2024-01-30T04:02:09;20.93;;;15.60;;
10894;SDS011;5500;49.886;8.074;2024-01-30T04:04:37;20.83;;;15.87;;
10894;SDS011;5500;49.886;8.074;2024-01-30T04:07:07;20.50;;;16.23;;
10894;SDS011;5500;49.886;8.074;2024-01-30T04:09:34;17.87;;;15.10;;
10894;SDS011;5500;49.886;8.074;2024-01-30T04:12:02;22.23;;;15.53;;
10894;SDS011;5500;49.886;8.074;2024-01-30T04:14:30;18.57;;;15.20;;
10894;SDS011;5500;49.886;8.074;2024-01-30T04:16:58;22.37;;;16.63;;
10894;SDS011;5500;49.886;8.074;2024-01-30T04:19:26;25.27;;;16.67;;
10894;SDS011;5500;49.886;8.074;2024-01-30T04:21:53;22.03;;;17.07;;
10894;SDS011;5500;49.886;8.074;2024-01-30T04:24:23;19.23;;;15.60;;
10894;SDS011;5500;49.886;8.074;2024-01-30T04:26:50;20.60;;;16.63;;
10894;SDS011;5500;49.886;8.074;2024-01-30T04:29:18;20.50;;;16.47;;
10894;SDS011;5500;49.886;8.074;2024-01-30T04:31:46;21.13;;;17.27;;
10894;SDS011;5500;49.886;8.074;2024-01-30T04:34:14;20.27;;;16.57;;
10894;SDS011;5500;49.886;8.074;2024-01-30T04:36:43;18.67;;;14.77;;
10894;SDS011;5500;49.886;8.074;2024-01-30T04:39:11;20.37;;;16.07;;
10894;SDS011;5500;49.886;8.074;2024-01-30T04:41:41;20.33;;;16.13;;
10894;SDS011;5500;49.886;8.074;2024-01-30T04:44:09;18.43;;;15.60;;
10894;SDS011;5500;49.886;8.074;2024-01-30T04:46:37;20.60;;;16.27;;
10894;SDS011;5500;49.886;8.074;2024-01-30T04:49:04;22.13;;;17.40;;
10894;SDS011;5500;49.886;8.074;2024-01-30T04:51:34;22.07;;;17.77;;
10894;SDS011;5500;49.886;8.074;2024-01-30T04:54:01;19.87;;;16.27;;
10894;SDS011;5500;49.886;8.074;2024-01-30T04:56:29;21.47;;;15.87;;
10894;SDS011;5500;49.886;8.074;2024-01-30T04:58:59;18.23;;;15.10;;
10894;SDS011;5500;49.886;8.074;2024-01-30T05:01:26;26.30;;;17.53;;
10894;SDS011;5500;49.886;8.074;2024-01-30T05:03:54;19.20;;;16.97;;
10894;SDS011;5500;49.886;8.074;2024-01-30T05:06:25;27.10;;;18.27;;
10894;SDS011;5500;49.886;8.074;2024-01-30T05:08:53;24.77;;;17.77;;
10894;SDS011;5500;49.886;8.074;2024-01-30T05:11:21;19.77;;;16.70;;
10894;SDS011;5500;49.886;8.074;2024-01-30T05:13:48;20.20;;;16.10;;
10894;SDS011;5500;49.886;8.074;2024-01-30T05:16:17;21.07;;;16.20;;
10894;SDS011;5500;49.886;8.074;2024-01-30T05:18:45;19.37;;;16.73;;
10894;SDS011;5500;49.886;8.074;2024-01-30T05:21:13;23.23;;;16.27;;
10894;SDS011;5500;49.886;8.074;2024-01-30T05:23:41;24.33;;;17.00;;
10894;SDS011;5500;49.886;8.074;2024-01-30T05:26:09;19.80;;;15.70;;
10894;SDS011;5500;49.886;8.074;2024-01-30T05:28:36;21.77;;;17.10;;
10894;SDS011;5500;49.886;8.074;2024-01-30T05:31:04;21.40;;;17.10;;
10894;SDS011;5500;49.886;8.074;2024-01-30T05:33:33;24.80;;;18.40;;
10894;SDS011;5500;49.886;8.074;2024-01-30T05:36:01;19.67;;;16.77;;
10894;SDS011;5500;49.886;8.074;2024-01-30T05:38:29;19.40;;;17.20;;
10894;SDS011;5500;49.886;8.074;2024-01-30T05:40:58;21.17;;;17.37;;
10894;SDS011;5500;49.886;8.074;2024-01-30T05:43:25;22.30;;;17.27;;
10894;SDS011;5500;49.886;8.074;2024-01-30T05:45:53;27.47;;;20.43;;
10894;SDS011;5500;49.886;8.074;2024-01-30T05:48:21;27.07;;;21.90;;
10894;SDS011;5500;49.886;8.074;2024-01-30T05:50:51;24.37;;;19.33;;
10894;SDS011;5500;49.886;8.074;2024-01-30T05:53:19;23.07;;;17.73;;
10894;SDS011;5500;49.886;8.074;2024-01-30T05:55:47;20.97;;;17.20;;
10894;SDS011;5500;49.886;8.074;2024-01-30T05:58:15;19.07;;;16.20;;
10894;SDS011;5500;49.886;8.074;2024-01-30T06:00:43;23.47;;;17.50;;
10894;SDS011;5500;49.886;8.074;2024-01-30T06:03:10;20.07;;;16.47;;
10894;SDS011;5500;49.886;8.074;2024-01-30T06:05:38;18.70;;;16.17;;
10894;SDS011;5500;49.886;8.074;2024-01-30T06:08:07;18.17;;;16.17;;
10894;SDS011;5500;49.886;8.074;2024-01-30T06:10:36;22.83;;;17.73;;
10894;SDS011;5500;49.886;8.074;2024-01-30T06:13:04;23.43;;;18.73;;
10894;SDS011;5500;49.886;8.074;2024-01-30T06:15:32;24.00;;;19.33;;
10894;SDS011;5500;49.886;8.074;2024-01-30T06:18:00;25.53;;;18.30;;
10894;SDS011;5500;49.886;8.074;2024-01-30T06:20:27;23.40;;;18.93;;
10894;SDS011;5500;49.886;8.074;2024-01-30T06:22:55;22.33;;;18.07;;
10894;SDS011;5500;49.886;8.074;2024-01-30T06:25:25;20.90;;;16.60;;
10894;SDS011;5500;49.886;8.074;2024-01-30T06:27:53;20.87;;;15.53;;
10894;SDS011;5500;49.886;8.074;2024-01-30T06:30:20;22.73;;;16.53;;
10894;SDS011;5500;49.886;8.074;2024-01-30T06:32:48;20.90;;;17.10;;
10894;SDS011;5500;49.886;8.074;2024-01-30T06:35:16;18.37;;;16.23;;
10894;SDS011;5500;49.886;8.074;2024-01-30T06:37:44;22.27;;;16.87;;
10894;SDS011;5500;49.886;8.074;2024-01-30T06:40:12;22.70;;;17.77;;
10894;SDS011;5500;49.886;8.074;2024-01-30T06:42:41;22.10;;;16.47;;
10894;SDS011;5500;49.886;8.074;2024-01-30T06:45:09;19.73;;;15.83;;
10894;SDS011;5500;49.886;8.074;2024-01-30T06:47:37;20.53;;;16.83;;
10894;SDS011;5500;49.886;8.074;2024-01-30T06:50:05;22.50;;;18.10;;
10894;SDS011;5500;49.886;8.074;2024-01-30T06:52:34;22.03;;;17.77;;
10894;SDS011;5500;49.886;8.074;2024-01-30T06:55:02;22.03;;;17.10;;
10894;SDS011;5500;49.886;8.074;2024-01-30T06:57:30;23.50;;;18.60;;
10894;SDS011;5500;49.886;8.074;2024-01-30T06:59:59;23.33;;;17.53;;
10894;SDS011;5500;49.886;8.074;2024-01-30T07:02:26;24.30;;;17.83;;
10894;SDS011;5500;49.886;8.074;2024-01-30T07:04:54;24.17;;;17.93;;
10894;SDS011;5500;49.886;8.074;2024-01-30T07:07:23;27.60;;;19.17;;
10894;SDS011;5500;49.886;8.074;2024-01-30T07:09:51;26.07;;;18.53;;
10894;SDS011;5500;49.886;8.074;2024-01-30T07:12:23;26.33;;;19.83;;
10894;SDS011;5500;49.886;8.074;2024-01-30T07:14:52;25.57;;;21.23;;
10894;SDS011;5500;49.886;8.074;2024-01-30T07:17:24;23.93;;;19.87;;
10894;SDS011;5500;49.886;8.074;2024-01-30T07:19:51;24.23;;;20.17;;
10894;SDS011;5500;49.886;8.074;2024-01-30T07:22:19;21.73;;;17.60;;
10894;SDS011;5500;49.886;8.074;2024-01-30T07:24:47;21.70;;;18.33;;
10894;SDS011;5500;49.886;8.074;2024-01-30T07:27:16;24.50;;;18.73;;
10894;SDS011;5500;49.886;8.074;2024-01-30T07:29:44;23.80;;;18.90;;
10894;SDS011;5500;49.886;8.074;2024-01-30T07:32:12;22.60;;;17.60;;
10894;SDS011;5500;49.886;8.074;2024-01-30T07:34:41;21.93;;;17.27;;
10894;SDS011;5500;49.886;8.074;2024-01-30T07:37:28;21.57;;;16.40;;
10894;SDS011;5500;49.886;8.074;2024-01-30T07:39:56;23.47;;;17.17;;
10894;SDS011;5500;49.886;8.074;2024-01-30T07:42:24;19.10;;;16.67;;
10894;SDS011;5500;49.886;8.074;2024-01-30T07:44:51;23.17;;;16.10;;
10894;SDS011;5500;49.886;8.074;2024-01-30T07:47:19;24.50;;;16.23;;
10894;SDS011;5500;49.886;8.074;2024-01-30T07:49:48;19.70;;;16.67;;
10894;SDS011;5500;49.886;8.074;2024-01-30T07:52:17;20.53;;;16.20;;
10894;SDS011;5500;49.886;8.074;2024-01-30T07:54:45;20.30;;;18.10;;
10894;SDS011;5500;49.886;8.074;2024-01-30T07:57:12;21.70;;;17.63;;
10894;SDS011;5500;49.886;8.074;2024-01-30T07:59:41;21.70;;;17.97;;
10894;SDS011;5500;49.886;8.074;2024-01-30T08:02:10;20.23;;;17.20;;
10894;SDS011;5500;49.886;8.074;2024-01-30T08:04:38;23.87;;;18.10;;
10894;SDS011;5500;49.886;8.074;2024-01-30T08:07:07;23.63;;;16.87;;
10894;SDS011;5500;49.886;8.074;2024-01-30T08:09:35;21.70;;;16.13;;
10894;SDS011;5500;49.886;8.074;2024-01-30T08:12:03;20.67;;;16.10;;
10894;SDS011;5500;49.886;8.074;2024-01-30T08:14:31;17.80;;;15.43;;
10894;SDS011;5500;49.886;8.074;2024-01-30T08:16:59;20.67;;;16.87;;
10894;SDS011;5500;49.886;8.074;2024-01-30T08:19:27;17.50;;;15.57;;
10894;SDS011;5500;49.886;8.074;2024-01-30T08:21:55;20.43;;;16.97;;
10894;SDS011;5500;49.886;8.074;2024-01-30T08:24:24;20.93;;;17.67;;
10894;SDS011;5500;49.886;8.074;2024-01-30T08:26:52;18.67;;;16.73;;
10894;SDS011;5500;49.886;8.074;2024-01-30T08:29:19;20.23;;;16.30;;
10894;SDS011;5500;49.886;8.074;2024-01-30T08:31:47;20.90;;;17.20;;
10894;SDS011;5500;49.886;8.074;2024-01-30T08:34:15;18.63;;;16.67;;
10894;SDS011;5500;49.886;8.074;2024-01-30T08:36:43;18.90;;;16.17;;
10894;SDS011;5500;49.886;8.074;2024-01-30T08:39:11;19.87;;;16.20;;
10894;SDS011;5500;49.886;8.074;2024-01-30T08:41:40;19.20;;;16.30;;
10894;SDS011;5500;49.886;8.074;2024-01-30T08:44:08;21.73;;;17.40;;
10894;SDS011;5500;49.886;8.074;2024-01-30T08:46:37;20.77;;;16.60;;
10894;SDS011;5500;49.886;8.074;2024-01-30T08:49:05;19.00;;;17.00;;
10894;SDS011;5500;49.886;8.074;2024-01-30T08:51:33;21.03;;;16.77;;
10894;SDS011;5500;49.886;8.074;2024-01-30T08:54:02;19.47;;;17.23;;
10894;SDS011;5500;49.886;8.074;2024-01-30T08:56:33;21.37;;;17.83;;
10894;SDS011;5500;49.886;8.074;2024-01-30T08:59:02;21.67;;;17.87;;
10894;SDS011;5500;49.886;8.074;2024-01-30T09:01:30;21.17;;;18.83;;
10894;SDS011;5500;49.886;8.074;2024-01-30T09:03:58;22.43;;;18.77;;
10894;SDS011;5500;49.886;8.074;2024-01-30T09:06:26;20.83;;;17.77;;
10894;SDS011;5500;49.886;8.074;2024-01-30T09:08:55;19.17;;;17.17;;
10894;SDS011;5500;49.886;8.074;2024-01-30T09:11:24;18.90;;;16.77;;
10894;SDS011;5500;49.886;8.074;2024-01-30T09:13:52;22.17;;;16.53;;
10894;SDS011;5500;49.886;8.074;2024-01-30T09:16:21;22.13;;;17.53;;
10894;SDS011;5500;49.886;8.074;2024-01-30T09:18:48;20.40;;;17.23;;
10894;SDS011;5500;49.886;8.074;2024-01-30T09:21:16;22.73;;;18.13;;
10894;SDS011;5500;49.886;8.074;2024-01-30T09:23:44;20.07;;;17.93;;
10894;SDS011;5500;49.886;8.074;2024-01-30T09:26:12;22.47;;;20.07;;
10894;SDS011;5500;49.886;8.074;2024-01-30T09:28:40;36.53;;;28.80;;
10894;SDS011;5500;49.886;8.074;2024-01-30T09:31:09;37.13;;;28.40;;
10894;SDS011;5500;49.886;8.074;2024-01-30T09:33:39;26.57;;;22.80;;
10894;SDS011;5500;49.886;8.074;2024-01-30T09:36:08;23.83;;;20.00;;
10894;SDS011;5500;49.886;8.074;2024-01-30T09:38:36;27.10;;;19.23;;
10894;SDS011;5500;49.886;8.074;2024-01-30T09:41:03;24.33;;;19.87;;
10894;SDS011;5500;49.886;8.074;2024-01-30T09:43:36;22.27;;;18.83;;
10894;SDS011;5500;49.886;8.074;2024-01-30T09:46:05;21.07;;;18.10;;
10894;SDS011;5500;49.886;8.074;2024-01-30T09:48:33;21.43;;;18.30;;
10894;SDS011;5500;49.886;8.074;2024-01-30T09:51:02;24.00;;;18.37;;
10894;SDS011;5500;49.886;8.074;2024-01-30T09:53:31;25.33;;;20.20;;
10894;SDS011;5500;49.886;8.074;2024-01-30T09:55:58;37.17;;;29.87;;
10894;SDS011;5500;49.886;8.074;2024-01-30T09:58:26;40.80;;;33.37;;
10894;SDS011;5500;49.886;8.074;2024-01-30T10:00:54;46.17;;;36.30;;
10894;SDS011;5500;49.886;8.074;2024-01-30T10:03:25;41.70;;;31.67;;
10894;SDS011;5500;49.886;8.074;2024-01-30T10:05:53;34.83;;;28.50;;
10894;SDS011;5500;49.886;8.074;2024-01-30T10:08:23;34.03;;;27.47;;
10894;SDS011;5500;49.886;8.074;2024-01-30T10:10:51;31.30;;;23.90;;
10894;SDS011;5500;49.886;8.074;2024-01-30T10:13:19;29.07;;;22.73;;
10894;SDS011;5500;49.886;8.074;2024-01-30T10:15:47;26.70;;;21.47;;
10894;SDS011;5500;49.886;8.074;2024-01-30T10:18:15;28.73;;;20.47;;
10894;SDS011;5500;49.886;8.074;2024-01-30T10:20:44;24.90;;;21.27;;
10894;SDS011;5500;49.886;8.074;2024-01-30T10:23:13;25.27;;;22.13;;
10894;SDS011;5500;49.886;8.074;2024-01-30T10:25:42;30.67;;;24.50;;
10894;SDS011;5500;49.886;8.074;2024-01-30T10:28:11;26.60;;;22.83;;
10894;SDS011;5500;49.886;8.074;2024-01-30T10:30:39;30.57;;;23.57;;
10894;SDS011;5500;49.886;8.074;2024-01-30T10:33:07;58.47;;;40.07;;
10894;SDS011;5500;49.886;8.074;2024-01-30T10:35:35;34.37;;;27.53;;
10894;SDS011;5500;49.886;8.074;2024-01-30T10:38:03;34.97;;;26.93;;
10894;SDS011;5500;49.886;8.074;2024-01-30T10:40:31;29.23;;;26.07;;
10894;SDS011;5500;49.886;8.074;2024-01-30T10:43:01;32.30;;;24.93;;
10894;SDS011;5500;49.886;8.074;2024-01-30T10:45:30;29.27;;;24.43;;
10894;SDS011;5500;49.886;8.074;2024-01-30T10:47:59;31.43;;;26.03;;
10894;SDS011;5500;49.886;8.074;2024-01-30T10:50:27;31.30;;;25.50;;
10894;SDS011;5500;49.886;8.074;2024-01-30T10:52:57;31.03;;;24.50;;
10894;SDS011;5500;49.886;8.074;2024-01-30T10:55:25;31.67;;;25.10;;
10894;SDS011;5500;49.886;8.074;2024-01-30T10:57:56;30.13;;;26.77;;
10894;SDS011;5500;49.886;8.074;2024-01-30T11:00:26;31.53;;;24.77;;
10894;SDS011;5500;49.886;8.074;2024-01-30T11:02:54;28.80;;;23.03;;
10894;SDS011;5500;49.886;8.074;2024-01-30T11:05:26;25.80;;;22.27;;
10894;SDS011;5500;49.886;8.074;2024-01-30T11:07:59;30.30;;;23.63;;
10894;SDS011;5500;49.886;8.074;2024-01-30T11:10:27;27.60;;;22.50;;
10894;SDS011;5500;49.886;8.074;2024-01-30T11:12:55;27.00;;;22.10;;
10894;SDS011;5500;49.886;8.074;2024-01-30T11:15:23;27.63;;;23.63;;
10894;SDS011;5500;49.886;8.074;2024-01-30T11:17:54;24.80;;;22.07;;
10894;SDS011;5500;49.886;8.074;2024-01-30T11:20:22;26.83;;;21.50;;
10894;SDS011;5500;49.886;8.074;2024-01-30T11:22:55;27.27;;;21.83;;
10894;SDS011;5500;49.886;8.074;2024-01-30T11:25:24;27.77;;;22.17;;
10894;SDS011;5500;49.886;8.074;2024-01-30T11:27:53;25.03;;;20.60;;
10894;SDS011;5500;49.886;8.074;2024-01-30T11:30:22;26.50;;;21.77;;
10894;SDS011;5500;49.886;8.074;2024-01-30T11:33:01;23.40;;;19.90;;
10894;SDS011;5500;49.886;8.074;2024-01-30T11:35:32;21.33;;;19.03;;
10894;SDS011;5500;49.886;8.074;2024-01-30T11:38:01;21.40;;;18.67;;
10894;SDS011;5500;49.886;8.074;2024-01-30T11:40:30;20.70;;;18.50;;
10894;SDS011;5500;49.886;8.074;2024-01-30T11:43:00;18.30;;;16.40;;
10894;SDS011;5500;49.886;8.074;2024-01-30T11:45:29;21.67;;;18.73;;
10894;SDS011;5500;49.886;8.074;2024-01-30T11:47:57;21.50;;;18.17;;
10894;SDS011;5500;49.886;8.074;2024-01-30T11:50:29;20.40;;;18.30;;
10894;SDS011;5500;49.886;8.074;2024-01-30T11:52:57;22.07;;;17.90;;
10894;SDS011;5500;49.886;8.074;2024-01-30T11:55:26;19.87;;;17.37;;
10894;SDS011;5500;49.886;8.074;2024-01-30T11:57:59;22.03;;;18.57;;
10894;SDS011;5500;49.886;8.074;2024-01-30T12:00:27;21.83;;;17.80;;
10894;SDS011;5500;49.886;8.074;2024-01-30T12:02:57;21.57;;;18.03;;
10894;SDS011;5500;49.886;8.074;2024-01-30T12:05:28;23.00;;;18.80;;
10894;SDS011;5500;49.886;8.074;2024-01-30T12:07:56;26.00;;;18.73;;
10894;SDS011;5500;49.886;8.074;2024-01-30T12:10:27;21.53;;;18.67;;
10894;SDS011;5500;49.886;8.074;2024-01-30T12:12:55;21.20;;;18.90;;
10894;SDS011;5500;49.886;8.074;2024-01-30T12:15:23;22.30;;;18.43;;
10894;SDS011;5500;49.886;8.074;2024-01-30T12:17:51;22.93;;;18.57;;
10894;SDS011;5500;49.886;8.074;2024-01-30T12:20:18;24.27;;;19.37;;
10894;SDS011;5500;49.886;8.074;2024-01-30T12:22:50;22.23;;;19.00;;
10894;SDS011;5500;49.886;8.074;2024-01-30T12:25:18;21.90;;;18.93;;
10894;SDS011;5500;49.886;8.074;2024-01-30T12:27:50;23.03;;;18.93;;
10894;SDS011;5500;49.886;8.074;2024-01-30T12:30:21;21.77;;;18.70;;
10894;SDS011;5500;49.886;8.074;2024-01-30T12:32:49;22.90;;;19.37;;
10894;SDS011;5500;49.886;8.074;2024-01-30T12:35:18;20.53;;;18.40;;
10894;SDS011;5500;49.886;8.074;2024-01-30T12:37:48;20.67;;;18.40;;
10894;SDS011;5500;49.886;8.074;2024-01-30T12:40:17;22.10;;;17.73;;
10894;SDS011;5500;49.886;8.074;2024-01-30T12:42:46;24.20;;;18.93;;
10894;SDS011;5500;49.886;8.074;2024-01-30T12:45:16;22.07;;;18.37;;
10894;SDS011;5500;49.886;8.074;2024-01-30T12:47:49;23.87;;;18.80;;
10894;SDS011;5500;49.886;8.074;2024-01-30T12:50:18;21.53;;;18.03;;
10894;SDS011;5500;49.886;8.074;2024-01-30T12:52:52;21.60;;;18.83;;
10894;SDS011;5500;49.886;8.074;2024-01-30T12:55:20;19.83;;;17.23;;
10894;SDS011;5500;49.886;8.074;2024-01-30T12:57:49;23.27;;;20.77;;
10894;SDS011;5500;49.886;8.074;2024-01-30T13:00:17;27.60;;;21.27;;
10894;SDS011;5500;49.886;8.074;2024-01-30T13:02:45;25.23;;;19.93;;
10894;SDS011;5500;49.886;8.074;2024-01-30T13:05:13;22.07;;;17.33;;
10894;SDS011;5500;49.886;8.074;2024-01-30T13:07:41;19.50;;;17.13;;
10894;SDS011;5500;49.886;8.074;2024-01-30T13:10:11;21.87;;;18.47;;
10894;SDS011;5500;49.886;8.074;2024-01-30T13:12:40;22.87;;;18.80;;
10894;SDS011;5500;49.886;8.074;2024-01-30T13:15:08;22.93;;;17.77;;
10894;SDS011;5500;49.886;8.074;2024-01-30T13:17:37;17.03;;;15.23;;
10894;SDS011;5500;49.886;8.074;2024-01-30T13:20:09;17.63;;;15.13;;
10894;SDS011;5500;49.886;8.074;2024-01-30T13:22:38;17.97;;;15.37;;
10894;SDS011;5500;49.886;8.074;2024-01-30T13:25:06;19.23;;;15.97;;
10894;SDS011;5500;49.886;8.074;2024-01-30T13:27:36;24.03;;;16.83;;
10894;SDS011;5500;49.886;8.074;2024-01-30T13:30:06;21.03;;;17.90;;
10894;SDS011;5500;49.886;8.074;2024-01-30T13:32:35;19.17;;;16.70;;
10894;SDS011;5500;49.886;8.074;2024-01-30T13:35:04;19.30;;;16.27;;
10894;SDS011;5500;49.886;8.074;2024-01-30T13:37:32;26.67;;;19.60;;
10894;SDS011;5500;49.886;8.074;2024-01-30T13:40:00;19.63;;;16.73;;
10894;SDS011;5500;49.886;8.074;2024-01-30T13:42:32;17.77;;;15.43;;
10894;SDS011;5500;49.886;8.074;2024-01-30T13:45:01;17.87;;;15.97;;
10894;SDS011;5500;49.886;8.074;2024-01-30T13:47:29;18.10;;;15.83;;
10894;SDS011;5500;49.886;8.074;2024-01-30T13:49:57;18.60;;;16.10;;
10894;SDS011;5500;49.886;8.074;2024-01-30T13:52:26;18.00;;;15.60;;
10894;SDS011;5500;49.886;8.074;2024-01-30T13:55:03;18.03;;;16.13;;
10894;SDS011;5500;49.886;8.074;2024-01-30T13:57:31;19.33;;;16.63;;
10894;SDS011;5500;49.886;8.074;2024-01-30T14:00:03;23.53;;;17.10;;
10894;SDS011;5500;49.886;8.074;2024-01-30T14:02:33;19.60;;;16.27;;
10894;SDS011;5500;49.886;8.074;2024-01-30T14:05:01;19.13;;;16.17;;
10894;SDS011;5500;49.886;8.074;2024-01-30T14:07:30;19.27;;;17.37;;
10894;SDS011;5500;49.886;8.074;2024-01-30T14:09:59;20.10;;;17.30;;
10894;SDS011;5500;49.886;8.074;2024-01-30T14:12:28;21.27;;;16.83;;
10894;SDS011;5500;49.886;8.074;2024-01-30T14:14:56;17.70;;;15.63;;
10894;SDS011;5500;49.886;8.074;2024-01-30T14:17:26;18.93;;;16.93;;
10894;SDS011;5500;49.886;8.074;2024-01-30T14:19:54;17.63;;;15.77;;
10894;SDS011;5500;49.886;8.074;2024-01-30T14:22:22;24.50;;;15.93;;
10894;SDS011;5500;49.886;8.074;2024-01-30T14:24:50;17.90;;;15.70;;
10894;SDS011;5500;49.886;8.074;2024-01-30T14:27:17;18.20;;;16.27;;
10894;SDS011;5500;49.886;8.074;2024-01-30T14:29:45;18.63;;;16.73;;
10894;SDS011;5500;49.886;8.074;2024-01-30T14:32:13;18.43;;;16.43;;
10894;SDS011;5500;49.886;8.074;2024-01-30T14:34:42;20.67;;;16.83;;
10894;SDS011;5500;49.886;8.074;2024-01-30T14:37:10;18.13;;;15.47;;
10894;SDS011;5500;49.886;8.074;2024-01-30T14:39:38;20.03;;;16.83;;
10894;SDS011;5500;49.886;8.074;2024-01-30T14:42:07;18.50;;;15.97;;